Time;durP1;ratioP1;P1;durP2;ratioP2;P2;SDS_P1;SDS_P2;PMS_P1;PMS_P2;Temp;Humidity;BMP_temperature;BMP_pressure;BME280_temperature;BME280_humidity;BME280_pressure;Samples;Min_cycle;Max_cycle;Signal;HPM_P1;HPM_P2
2023/06/26 00:01:33;;;;;;;7.03;5.85;;;17.30;99.90;;;16.37;100.00;101249.63;4913072;29;20706;-71
2023/06/26 00:04:01;;;;;;;9.23;6.72;;;17.20;99.90;;;16.36;100.00;101256.75;4905588;28;20041;-71
2023/06/26 00:06:27;;;;;;;7.57;6.03;;;17.20;99.90;;;16.32;100.00;101255.22;4922178;28;20117;-71
2023/06/26 00:08:54;;;;;;;7.53;5.80;;;17.20;99.90;;;16.30;100.00;101249.16;4927099;28;20039;-71
2023/06/26 00:11:21;;;;;;;6.70;6.00;;;17.20;99.90;;;16.28;100.00;101247.53;4918668;28;20059;-71
2023/06/26 00:13:47;;;;;;;9.40;5.40;;;17.20;99.90;;;16.28;100.00;101250.19;4915195;28;20044;-70
2023/06/26 00:16:13;;;;;;;7.32;5.55;;;17.20;99.90;;;16.28;100.00;101245.72;4927670;28;21179;-71
2023/06/26 00:18:38;;;;;;;9.18;5.03;;;17.20;99.90;;;16.25;100.00;101245.09;4899570;28;20052;-71
2023/06/26 00:21:04;;;;;;;6.88;5.18;;;17.10;99.90;;;16.20;100.00;101238.25;4927918;28;20028;-72
2023/06/26 00:23:32;;;;;;;7.00;5.35;;;17.10;99.90;;;16.26;100.00;101236.16;4926166;28;20390;-71
2023/06/26 00:25:57;;;;;;;7.25;5.32;;;17.20;99.90;;;16.30;100.00;101240.31;4896456;28;20031;-72
2023/06/26 00:28:23;;;;;;;6.50;5.30;;;17.20;99.90;;;16.35;100.00;101240.91;4919789;28;20035;-71
2023/06/26 00:30:49;;;;;;;8.68;5.57;;;17.20;99.90;;;16.37;100.00;101241.63;4891573;28;20060;-70
2023/06/26 00:33:15;;;;;;;8.18;5.25;;;17.30;99.90;;;16.39;100.00;101240.63;4904007;28;20106;-72
2023/06/26 00:35:41;;;;;;;7.18;5.10;;;17.30;99.90;;;16.42;100.00;101239.56;4907230;28;21506;-71
2023/06/26 00:38:07;;;;;;;;;;;17.30;99.90;;;16.35;100.00;101236.44;4908024;28;20501;-72
2023/06/26 00:40:32;;;;;;;10.23;5.93;;;17.30;99.90;;;16.35;100.00;101233.78;4911279;28;19929;-72
2023/06/26 00:42:58;;;;;;;;;;;17.30;99.90;;;16.31;100.00;101226.94;4887730;28;20130;-70
2023/06/26 00:45:24;;;;;;;7.93;5.97;;;17.30;99.90;;;16.36;100.00;101226.66;4891675;28;19915;-72
2023/06/26 00:47:50;;;;;;;9.13;5.78;;;17.30;99.90;;;16.39;100.00;101229.09;4924192;28;20119;-71
2023/06/26 00:50:17;;;;;;;;;;;17.30;99.90;;;16.34;100.00;101220.59;4913648;28;20131;-70
2023/06/26 00:52:43;;;;;;;11.13;6.10;;;17.30;99.90;;;16.33;100.00;101216.25;4891097;28;19953;-71
2023/06/26 00:55:09;;;;;;;9.40;5.88;;;17.30;99.90;;;16.33;100.00;101216.25;4925999;28;20041;-71
2023/06/26 00:57:35;;;;;;;9.82;6.00;;;17.30;99.90;;;16.36;100.00;101218.69;4924402;28;20040;-71
2023/06/26 01:00:03;;;;;;;18.55;7.00;;;17.30;99.90;;;16.37;100.00;101215.06;4894516;29;21575;-72
2023/06/26 01:02:33;;;;;;;8.60;6.25;;;17.30;99.90;;;16.36;100.00;101211.56;4904506;28;20048;-71
2023/06/26 01:05:03;;;;;;;9.45;6.47;;;17.20;99.90;;;16.33;100.00;101208.25;4912022;28;20452;-72
2023/06/26 01:07:29;;;;;;;8.77;6.03;;;17.20;99.90;;;16.31;100.00;101212.81;4904441;28;20071;-72
2023/06/26 01:09:55;;;;;;;6.85;5.95;;;17.20;99.90;;;16.30;100.00;101211.09;4915657;29;20044;-72
2023/06/26 01:12:22;;;;;;;8.23;5.80;;;17.20;99.90;;;16.29;100.00;101206.75;4920652;28;20040;-71
2023/06/26 01:14:47;;;;;;;8.10;5.70;;;17.20;99.90;;;16.27;100.00;101204.19;4931070;28;20040;-71
2023/06/26 01:17:15;;;;;;;8.23;6.40;;;17.20;99.90;;;16.25;100.00;101206.06;4930518;28;20040;-71
2023/06/26 01:19:42;;;;;;;11.05;6.40;;;17.20;99.90;;;16.25;100.00;101207.88;4912842;28;20040;-71
2023/06/26 01:22:34;;;;;;;9.25;5.95;;;17.20;99.90;;;16.27;100.00;101200.69;4904380;29;20040;-72
2023/06/26 01:25:38;;;;;;;7.93;6.18;;;17.20;99.90;;;16.25;100.00;101203.41;4929138;28;20669;-71
2023/06/26 01:28:08;;;;;;;10.80;5.80;;;17.20;99.90;;;16.25;100.00;101199.91;4912615;28;20556;-72
2023/06/26 01:30:38;;;;;;;8.48;6.32;;;17.20;99.90;;;16.24;100.00;101200.84;4909283;28;20040;-72
2023/06/26 01:33:05;;;;;;;9.13;6.22;;;17.20;99.90;;;16.28;100.00;101195.25;4914074;29;20114;-73
2023/06/26 01:35:31;;;;;;;10.25;6.28;;;17.20;99.90;;;16.31;100.00;101199.53;4914704;28;20107;-71
2023/06/26 01:38:20;;;;;;;12.55;6.47;;;17.20;99.90;;;16.29;100.00;101188.16;4927911;28;20104;-72
2023/06/26 01:40:46;;;;;;;10.82;6.35;;;17.20;99.90;;;16.31;100.00;101192.41;4906128;29;20393;-73
2023/06/26 01:43:54;;;;;;;11.18;7.05;;;17.20;99.90;;;16.35;100.00;101190.41;4912057;28;20348;-72
2023/06/26 01:46:39;;;;;;;9.40;7.03;;;17.20;99.90;;;16.34;100.00;101184.22;4914537;28;20086;-72
2023/06/26 01:49:23;;;;;;;13.02;7.57;;;17.30;99.90;;;16.37;100.00;101183.19;4912879;28;20138;-72
2023/06/26 01:52:14;;;;;;;13.63;7.43;;;17.30;99.90;;;16.39;100.00;101189.25;4912312;28;20032;-71
2023/06/26 01:54:50;;;;;;;9.75;6.35;;;17.30;99.90;;;16.41;100.00;101190.00;4908249;28;20098;-72
2023/06/26 01:57:18;;;;;;;12.18;7.35;;;17.30;99.90;;;16.42;100.00;101182.91;4896925;28;20095;-72
2023/06/26 01:59:47;;;;;;;10.30;7.07;;;17.30;99.90;;;16.42;100.00;101172.28;4913870;28;20577;-72
2023/06/26 02:02:13;;;;;;;15.25;7.43;;;17.30;99.90;;;16.39;100.00;101184.81;4911570;29;20040;-72
2023/06/26 02:04:40;;;;;;;12.57;7.15;;;17.30;99.90;;;16.42;100.00;101165.16;4915964;28;20047;-72
2023/06/26 02:07:05;;;;;;;15.30;7.35;;;17.30;99.90;;;16.43;100.00;101174.81;4906237;28;20127;-71
2023/06/26 02:09:31;;;;;;;10.35;7.20;;;17.30;99.90;;;16.45;100.00;101172.06;4913962;29;20031;-72
2023/06/26 02:11:57;;;;;;;12.82;7.38;;;17.30;99.90;;;16.45;100.00;101170.25;4930047;28;20462;-71
2023/06/26 02:14:23;;;;;;;21.92;8.15;;;17.30;99.90;;;16.48;100.00;101170.06;4907569;28;20102;-72
2023/06/26 02:16:49;;;;;;;;;;;17.30;99.90;;;16.48;99.69;101167.41;4912305;28;20620;-71
2023/06/26 02:19:21;;;;;;;11.20;6.82;;;17.30;99.90;;;16.46;100.00;101173.75;4913950;28;19926;-72
2023/06/26 02:21:50;;;;;;;10.60;6.55;;;17.30;99.90;;;16.50;99.71;101168.16;4911042;28;20044;-72
2023/06/26 02:24:16;;;;;;;37.53;8.57;;;17.40;99.90;;;16.54;100.00;101160.84;4933022;28;20115;-72
2023/06/26 02:26:42;;;;;;;11.13;6.88;;;17.40;99.90;;;16.59;99.94;101158.75;4917970;29;20103;-71
2023/06/26 02:29:08;;;;;;;12.55;6.13;;;17.50;99.90;;;16.67;99.71;101156.41;4933555;28;20119;-71
2023/06/26 02:31:33;;;;;;;;;;;17.50;99.90;;;16.65;100.00;101155.69;4919176;28;20043;-71
2023/06/26 02:33:59;;;;;;;7.43;5.72;;;17.50;99.90;;;16.66;100.00;101156.53;4898455;28;19922;-72
2023/06/26 02:36:25;;;;;;;;;;;17.50;99.90;;;16.65;100.00;101149.50;4896908;28;20416;-71
2023/06/26 02:38:50;;;;;;;9.38;6.13;;;17.50;99.90;;;16.69;100.00;101153.66;4902734;28;19923;-72
2023/06/26 02:41:16;;;;;;;;;;;18.30;99.90;;;16.68;100.00;101149.31;4896446;28;20139;-72
2023/06/26 02:43:42;;;;;;;8.63;6.00;;;17.60;99.90;;;16.74;100.00;101152.44;4912070;28;19921;-72
2023/06/26 02:46:08;;;;;;;11.27;6.18;;;17.60;99.90;;;16.78;100.00;101151.28;4907016;28;20075;-72
2023/06/26 02:48:34;;;;;;;11.60;6.00;;;17.70;99.90;;;16.79;99.83;101139.66;4912133;28;20036;-73
2023/06/26 02:50:59;;;;;;;;;;;17.60;99.90;;;16.78;99.48;101145.97;4906792;28;20090;-73
2023/06/26 02:53:25;;;;;;;10.25;5.90;;;17.70;99.90;;;16.80;99.18;101149.41;4911628;28;19923;-71
2023/06/26 02:55:51;;;;;;;;;;;17.70;99.90;;;16.73;99.59;101141.88;4929736;28;21175;-73
2023/06/26 02:58:16;;;;;;;9.70;6.32;;;17.60;99.90;;;16.74;99.79;101151.56;4911372;28;19918;-71
2023/06/26 03:00:43;;;;;;;;;;;17.70;99.90;;;16.80;99.25;101144.09;4928578;28;20114;-71
2023/06/26 03:03:09;;;;;;;9.30;5.50;;;17.70;99.90;;;16.81;99.54;101139.59;4906775;28;19927;-75
2023/06/26 03:05:35;;;;;;;12.45;6.22;;;17.80;99.90;;;16.86;98.71;101132.16;4904663;28;20122;-71
2023/06/26 03:08:03;;;;;;;10.95;5.55;;;17.80;99.90;;;17.00;97.84;101133.91;4903840;28;20063;-71
2023/06/26 03:10:28;;;;;;;9.82;6.30;;;17.90;99.90;;;17.08;97.02;101136.03;4914809;28;20033;-72
2023/06/26 03:12:54;;;;;;;7.28;5.13;;;17.90;99.90;;;17.17;95.89;101132.75;4926597;28;20051;-71
2023/06/26 03:15:20;;;;;;;13.60;5.55;;;18.00;99.90;;;17.24;95.18;101135.88;4914553;28;20127;-71
2023/06/26 03:17:46;;;;;;;;;;;18.00;99.90;;;17.23;94.95;101132.34;4912524;28;20024;-71
2023/06/26 03:20:11;;;;;;;9.65;5.95;;;18.00;99.90;;;17.26;94.50;101129.50;4906118;28;19919;-71
2023/06/26 03:22:37;;;;;;;9.18;6.03;;;18.10;99.90;;;17.30;93.98;101138.97;4905676;28;20044;-71
2023/06/26 03:25:04;;;;;;;;;;;18.00;99.90;;;17.32;93.67;101134.41;4912134;29;20400;-72
2023/06/26 03:27:30;;;;;;;6.93;5.18;;;18.10;99.90;;;17.25;93.81;101135.75;4911818;28;19947;-73
2023/06/26 03:29:56;;;;;;;8.73;5.15;;;18.10;99.90;;;17.33;93.50;101133.44;4918688;28;20048;-71
2023/06/26 03:32:22;;;;;;;;;;;18.10;99.90;;;17.31;93.46;101143.31;4895427;28;20024;-71
2023/06/26 03:34:48;;;;;;;9.60;5.90;;;18.20;99.90;;;17.36;92.88;101133.19;4927818;28;20331;-71
2023/06/26 03:37:13;;;;;;;;;;;18.20;99.90;;;17.38;92.87;101133.09;4896132;28;20134;-72
2023/06/26 03:39:39;;;;;;;10.25;6.28;;;18.20;99.90;;;17.36;92.60;101133.19;4919049;28;19922;-72
2023/06/26 03:42:05;;;;;;;;;;;18.20;99.90;;;17.35;92.96;101128.84;4919862;28;20055;-73
2023/06/26 03:44:31;;;;;;;7.72;5.13;;;18.20;99.90;;;17.37;92.73;101134.94;4914261;28;19915;-72
2023/06/26 03:46:57;;;;;;;12.68;5.72;;;18.20;99.90;;;17.37;92.62;101131.41;4888087;28;20042;-71
2023/06/26 03:49:22;;;;;;;;;;;18.20;99.90;;;17.36;93.01;101127.03;4911483;28;20094;-72
2023/06/26 03:51:49;;;;;;;15.02;6.13;;;18.30;99.90;;;17.50;92.49;101120.78;4911383;28;19933;-71
2023/06/26 03:54:14;;;;;;;11.25;5.80;;;18.30;99.90;;;17.60;91.89;101132.47;4913498;29;20043;-71
2023/06/26 03:56:40;;;;;;;10.60;5.60;;;18.40;99.90;;;17.69;91.02;101126.53;4912298;28;20478;-73
2023/06/26 03:59:06;;;;;;;;;;;18.40;99.90;;;17.88;90.50;101131.41;4885668;29;20044;-71
2023/06/26 04:01:32;;;;;;;9.05;6.03;;;18.60;99.90;;;17.98;89.49;101132.47;4910654;28;19977;-72
2023/06/26 04:03:57;;;;;;;;;;;18.60;99.90;;;18.08;88.97;101126.47;4912453;28;20046;-72
2023/06/26 04:06:23;;;;;;;11.00;5.90;;;18.80;99.90;;;18.22;87.94;101124.50;4916818;28;20452;-72
2023/06/26 04:08:49;;;;;;;;;;;18.80;99.90;;;19.00;86.58;101131.22;4906650;28;20039;-71
2023/06/26 04:11:15;;;;;;;71.07;8.63;;;20.20;99.90;;;20.14;81.59;101130.41;4913172;28;19915;-72
2023/06/26 04:13:41;;;;;;;;;;;20.30;99.90;;;21.34;76.35;101131.22;4911194;29;20047;-72
2023/06/26 04:16:06;;;;;;;12.82;5.82;;;22.30;99.90;;;22.45;71.19;101135.78;4926442;28;19926;-72
2023/06/26 04:18:32;;;;;;;9.88;5.60;;;23.20;99.90;;;23.33;67.45;101131.28;4897621;29;20044;-72
2023/06/26 04:21:16;;;;;;;;;;;23.30;99.90;;;24.64;63.98;101142.88;4910021;28;20047;-72
2023/06/26 04:23:42;;;;;;;8.02;4.93;;;24.90;99.90;;;24.98;61.78;101129.56;4911199;28;20311;-72
2023/06/26 04:26:08;;;;;;;6.95;4.88;;;25.60;99.90;;;25.85;59.70;101142.28;4912837;28;20036;-72
2023/06/26 04:28:35;;;;;;;12.70;5.30;;;26.30;99.90;;;26.57;58.39;101145.47;4909378;28;20032;-72
2023/06/26 04:31:03;;;;;;;13.68;5.10;;;26.80;99.90;;;27.20;56.11;101144.78;4912943;28;20035;-72
2023/06/26 04:33:29;;;;;;;6.00;4.55;;;27.30;99.90;;;27.55;54.83;101148.16;4911860;28;20091;-72
2023/06/26 04:35:55;;;;;;;9.10;5.30;;;27.70;99.90;;;27.76;53.85;101155.72;4903690;28;20083;-73
2023/06/26 04:38:21;;;;;;;9.85;5.00;;;28.00;99.90;;;28.39;53.04;101162.06;4903444;28;20032;-73
2023/06/26 04:40:48;;;;;;;8.75;4.97;;;28.40;99.90;;;28.86;52.14;101162.16;4900801;28;20432;-72
2023/06/26 04:43:14;;;;;;;9.68;5.43;;;28.60;99.90;;;28.80;52.03;101153.69;4909542;28;20066;-72
2023/06/26 04:45:40;;;;;;;6.50;4.78;;;29.00;99.90;;;29.59;50.46;101157.91;4903695;28;20493;-72
2023/06/26 04:48:06;;;;;;;15.57;4.88;;;29.10;99.20;;;29.19;50.61;101158.16;4917555;28;20138;-71
2023/06/26 04:50:33;;;;;;;14.07;6.22;;;29.00;99.10;;;29.13;50.53;101158.88;4914696;28;20035;-72
2023/06/26 04:52:59;;;;;;;7.50;5.05;;;29.00;99.60;;;29.43;49.98;101164.38;4910877;28;20128;-73
2023/06/26 04:55:25;;;;;;;8.50;5.65;;;28.90;98.80;;;28.90;51.04;101160.72;4925225;28;20029;-73
2023/06/26 04:57:51;;;;;;;11.20;5.50;;;29.10;99.20;;;29.39;49.91;101165.75;4895750;28;20083;-72
2023/06/26 05:00:18;;;;;;;8.07;5.20;;;29.10;99.30;;;29.62;49.69;101166.53;4913443;28;20067;-72
2023/06/26 05:02:43;;;;;;;6.97;5.40;;;29.30;98.70;;;30.01;48.77;101170.88;4908608;28;20051;-72
2023/06/26 05:05:10;;;;;;;8.40;5.60;;;29.50;99.10;;;30.34;48.36;101167.75;4910665;28;20032;-72
2023/06/26 05:07:38;;;;;;;10.02;4.78;;;29.90;98.30;;;30.83;47.11;101186.06;4906557;28;20036;-72
2023/06/26 05:10:05;;;;;;;13.70;5.45;;;30.30;97.90;;;31.70;45.62;101188.69;4919812;28;20037;-72
2023/06/26 05:12:31;;;;;;;8.30;5.13;;;30.90;97.40;;;32.20;44.27;101200.31;4915953;28;20074;-72
2023/06/26 05:14:56;;;;;;;8.20;5.05;;;31.20;96.70;;;32.45;44.02;101196.00;4911802;28;20573;-72
2023/06/26 05:17:22;;;;;;;6.00;4.75;;;31.30;95.80;;;32.17;44.21;101195.28;4912549;28;20119;-72
2023/06/26 05:19:48;;;;;;;6.78;5.05;;;30.90;96.10;;;31.51;45.44;101191.06;4912251;28;20036;-72
2023/06/26 05:22:15;;;;;;;7.50;4.68;;;31.10;96.60;;;32.26;44.44;101211.22;4925324;28;20054;-72
2023/06/26 05:24:46;;;;;;;6.38;5.20;;;31.20;95.90;;;32.60;43.72;101208.66;4909143;29;20056;-72
2023/06/26 05:27:19;;;;;;;8.00;4.88;;;31.40;95.60;;;32.50;43.60;101196.22;4905420;28;20039;-72
2023/06/26 05:29:45;;;;;;;8.40;5.35;;;31.90;95.90;;;33.20;42.54;101212.34;4911553;28;20374;-72
2023/06/26 05:32:17;;;;;;;6.10;5.13;;;32.30;95.60;;;33.71;41.95;101208.97;4904369;28;20406;-72
2023/06/26 05:34:51;;;;;;;17.13;5.03;;;31.80;94.50;;;32.26;44.23;101194.03;4926494;28;20040;-72
2023/06/26 05:37:21;;;;;;;9.50;4.82;;;32.00;95.60;;;33.19;42.32;101201.66;4911266;28;20044;-72
2023/06/26 05:39:48;;;;;;;16.13;5.22;;;32.30;95.20;;;33.95;41.59;101205.75;4911624;28;20040;-71
2023/06/26 05:42:15;;;;;;;5.13;4.30;;;32.90;94.30;;;34.53;40.54;101209.31;4924657;28;20416;-74
2023/06/26 05:44:40;;;;;;;8.93;4.60;;;33.40;94.70;;;35.00;39.98;101213.72;4924919;28;20071;-72
2023/06/26 05:47:06;;;;;;;7.85;4.65;;;33.70;93.50;;;35.02;39.64;101208.84;4912200;28;20501;-72
2023/06/26 05:49:33;;;;;;;9.05;4.72;;;33.40;93.60;;;33.07;42.75;101188.63;4904211;28;20044;-73
2023/06/26 05:51:59;;;;;;;14.65;4.53;;;32.60;93.10;;;32.64;43.84;101169.06;4903546;28;20039;-72
2023/06/26 05:54:25;;;;;;;7.10;4.45;;;32.50;93.90;;;33.13;42.62;101184.22;4911432;28;20039;-73
2023/06/26 05:57:00;;;;;;;8.45;4.30;;;32.50;94.20;;;33.48;42.14;101181.28;4909541;28;20035;-72
2023/06/26 05:59:27;;;;;;;9.25;4.40;;;32.70;94.20;;;33.19;42.79;101169.75;4912648;28;20052;-73
2023/06/26 06:01:53;;;;;;;7.97;4.90;;;32.90;94.30;;;33.72;41.81;101187.97;4917385;28;20119;-72
2023/06/26 06:04:19;;;;;;;7.22;4.55;;;33.30;93.60;;;34.60;40.63;101189.31;4913414;28;20413;-73
2023/06/26 06:06:45;;;;;;;7.63;4.43;;;33.60;93.80;;;34.78;40.37;101196.81;4929045;28;20068;-73
2023/06/26 06:09:11;;;;;;;6.70;4.55;;;33.70;92.60;;;33.63;40.89;101184.66;4908338;28;20034;-72
2023/06/26 06:11:37;;;;;;;10.95;4.50;;;33.10;93.10;;;32.49;43.12;101169.19;4916006;28;20035;-73
2023/06/26 06:14:04;;;;;;;6.90;4.40;;;32.60;94.40;;;32.11;44.53;101158.78;4904595;28;20492;-73
2023/06/26 06:16:30;;;;;;;8.52;4.97;;;31.90;93.70;;;30.93;45.93;101145.00;4929114;28;20036;-72
2023/06/26 06:18:56;;;;;;;8.55;4.47;;;31.20;94.90;;;30.26;47.54;101125.22;4915680;28;20039;-73
2023/06/26 06:21:21;;;;;;;10.02;5.07;;;30.60;95.60;;;29.68;48.50;101118.84;4913411;28;20130;-73
2023/06/26 06:23:47;;;;;;;11.30;4.97;;;30.10;96.10;;;29.09;49.78;101108.75;4914950;28;20035;-74
2023/06/26 06:26:13;;;;;;;7.53;5.00;;;29.50;96.70;;;28.41;51.02;101107.72;4909365;28;20046;-72
2023/06/26 06:28:39;;;;;;;6.32;5.22;;;29.00;97.30;;;27.87;52.41;101103.13;4917680;28;20508;-72
2023/06/26 06:31:05;;;;;;;7.90;4.72;;;28.90;97.80;;;27.49;53.07;101097.44;4930681;28;20054;-72
2023/06/26 06:33:31;;;;;;;10.05;5.20;;;27.90;98.70;;;26.94;54.52;101082.00;4927860;28;20071;-72
2023/06/26 06:35:57;;;;;;;9.98;5.50;;;27.50;99.40;;;26.53;55.60;101076.56;4920736;28;20548;-72
2023/06/26 06:38:23;;;;;;;14.18;5.55;;;27.20;99.90;;;26.05;56.90;101073.59;4912127;29;20035;-74
2023/06/26 06:40:49;;;;;;;15.00;5.18;;;26.80;99.90;;;25.68;58.40;101073.94;4898167;28;20035;-73
2023/06/26 06:43:15;;;;;;;11.90;5.53;;;26.30;99.90;;;25.19;60.27;101069.09;4914967;28;20068;-73
2023/06/26 06:45:41;;;;;;;9.95;5.57;;;26.00;99.90;;;24.87;61.21;101050.84;4915710;28;20037;-72
2023/06/26 06:48:07;;;;;;;12.93;5.60;;;25.70;99.90;;;24.66;62.09;101051.19;4916303;28;20594;-72
2023/06/26 06:50:33;;;;;;;13.25;6.10;;;25.40;99.90;;;24.42;62.59;101054.47;4914139;28;20039;-72
2023/06/26 06:52:59;;;;;;;10.52;5.65;;;25.20;99.90;;;24.38;63.31;101045.84;4898506;29;20037;-72
2023/06/26 06:55:25;;;;;;;10.70;5.70;;;25.00;99.90;;;24.18;63.78;101034.41;4910557;28;20040;-74
2023/06/26 06:57:51;;;;;;;13.63;5.50;;;24.90;99.90;;;24.16;64.21;101034.53;4914640;28;20095;-72
2023/06/26 07:00:18;;;;;;;8.75;6.20;;;24.80;99.90;;;24.07;64.77;101035.47;4907704;28;20777;-73
2023/06/26 07:02:45;;;;;;;10.38;5.82;;;24.70;99.90;;;23.96;65.73;101024.94;4908682;28;20048;-73
2023/06/26 07:05:12;;;;;;;7.30;5.75;;;24.60;99.90;;;23.75;66.25;101025.16;4906329;29;20040;-73
2023/06/26 07:07:39;;;;;;;9.50;5.70;;;24.50;99.90;;;23.65;66.64;101027.91;4912607;28;20055;-72
2023/06/26 07:10:14;;;;;;;11.30;5.95;;;24.50;99.90;;;23.83;66.72;101036.06;4912405;28;20067;-73
2023/06/26 07:12:40;;;;;;;10.63;6.32;;;24.50;99.90;;;23.92;65.85;101023.53;4911668;29;20051;-72
2023/06/26 07:15:07;;;;;;;9.35;6.30;;;24.60;99.90;;;24.06;65.92;101023.03;4916112;28;20050;-73
2023/06/26 07:17:34;;;;;;;14.10;5.95;;;24.70;99.90;;;24.24;66.13;101016.81;4913667;28;20390;-72
2023/06/26 07:20:06;;;;;;;11.38;5.85;;;24.70;99.90;;;24.23;65.92;101024.03;4904559;29;20028;-73
2023/06/26 07:22:31;;;;;;;9.55;6.28;;;24.80;99.90;;;24.30;66.48;101021.59;4902427;28;20101;-72
2023/06/26 07:24:57;;;;;;;12.10;5.75;;;24.90;99.90;;;24.46;66.71;101019.03;4917126;28;20438;-73
2023/06/26 07:27:23;;;;;;;9.13;5.57;;;25.00;99.90;;;24.74;65.81;101017.09;4904907;29;20038;-74
2023/06/26 07:29:49;;;;;;;10.85;6.40;;;25.30;99.90;;;24.84;65.05;101018.84;4905493;28;20103;-72
2023/06/26 07:32:15;;;;;;;11.48;6.35;;;25.20;99.90;;;24.65;65.74;101017.19;4926921;28;20042;-74
2023/06/26 07:34:40;;;;;;;10.38;5.88;;;25.30;99.90;;;24.79;65.30;101024.69;4878645;28;20031;-73
2023/06/26 07:37:07;;;;;;;8.90;6.22;;;25.30;99.90;;;24.67;65.79;101024.13;4898471;28;20461;-73
2023/06/26 07:39:35;;;;;;;11.13;6.10;;;25.30;99.90;;;24.77;65.78;101014.09;4910742;29;20501;-73
2023/06/26 07:42:00;;;;;;;6.88;6.00;;;25.30;99.90;;;24.57;66.01;101012.59;4926747;28;20038;-72
2023/06/26 07:44:26;;;;;;;12.35;6.50;;;25.20;99.90;;;24.48;66.42;101011.69;4914301;28;20709;-72
2023/06/26 07:46:53;;;;;;;7.57;5.47;;;25.10;99.90;;;24.32;66.98;101001.59;4913382;29;20099;-73
2023/06/26 07:49:18;;;;;;;11.93;6.45;;;25.00;99.90;;;24.27;67.39;101006.56;4900774;28;20036;-73
2023/06/26 07:51:44;;;;;;;11.25;5.72;;;25.00;99.90;;;24.17;68.31;101000.44;4912630;28;20035;-73
2023/06/26 07:54:10;;;;;;;8.25;5.63;;;24.90;99.90;;;24.25;68.59;101002.34;4910584;29;20561;-74
2023/06/26 07:57:06;;;;;;;15.57;5.63;;;24.90;99.90;;;24.32;67.72;100990.84;4913167;28;20036;-73
2023/06/26 07:59:33;;;;;;;9.95;5.68;;;25.00;99.90;;;24.50;66.99;100998.06;4914604;28;20050;-73
2023/06/26 08:01:59;;;;;;;12.15;5.82;;;25.20;99.90;;;24.96;66.28;100996.88;4909600;28;20036;-75
2023/06/26 08:04:28;;;;;;;11.98;6.13;;;25.40;99.90;;;25.29;65.24;100998.94;4897050;28;20044;-72
2023/06/26 08:06:56;;;;;;;7.32;5.45;;;25.90;99.90;;;26.05;62.98;100995.34;4927965;28;20778;-73
2023/06/26 08:09:26;;;;;;;7.55;5.55;;;26.50;99.90;;;26.94;60.61;101006.34;4927188;28;20391;-74
2023/06/26 08:11:51;;;;;;;9.77;5.07;;;27.30;99.90;;;28.00;58.10;101000.53;4886200;28;20039;-73
2023/06/26 08:14:17;;;;;;;14.57;6.03;;;28.10;99.90;;;28.81;55.90;101009.06;4888099;29;20038;-72
2023/06/26 08:16:44;;;;;;;16.35;5.80;;;28.70;99.90;;;29.22;54.68;101002.38;4915472;29;20055;-73
2023/06/26 08:19:14;;;;;;;12.00;5.70;;;28.90;99.90;;;28.83;55.59;101001.59;4924721;28;20036;-73
2023/06/26 08:21:45;;;;;;;7.70;5.25;;;28.80;99.90;;;28.75;55.94;100995.41;4902261;28;20682;-73
2023/06/26 08:24:13;;;;;;;11.05;5.78;;;28.70;99.90;;;28.32;56.54;100990.50;4909529;29;20134;-73
2023/06/26 08:26:39;;;;;;;9.15;5.90;;;28.60;99.90;;;28.10;56.49;100989.50;4886015;29;20040;-76
2023/06/26 08:29:07;;;;;;;6.03;5.13;;;28.40;99.90;;;27.64;57.80;100983.13;4908064;28;20036;-76
2023/06/26 08:31:34;;;;;;;8.55;6.15;;;28.10;99.90;;;27.44;58.36;100982.75;4922661;28;20039;-75
2023/06/26 08:34:01;;;;;;;13.52;5.53;;;27.70;99.90;;;26.96;59.77;100975.44;4902833;28;20028;-75
2023/06/26 08:36:27;;;;;;;9.13;5.75;;;27.50;99.90;;;26.94;59.78;100968.53;4908747;28;21504;-76
2023/06/26 08:38:53;;;;;;;6.65;4.82;;;27.50;99.90;;;27.27;59.33;100971.97;4908094;28;20039;-76
2023/06/26 08:41:19;;;;;;;7.45;5.18;;;27.70;99.90;;;27.70;59.19;100968.91;4908097;29;20063;-75
2023/06/26 08:43:45;;;;;;;10.80;5.47;;;27.90;99.90;;;27.92;57.21;100964.56;4918420;29;20027;-75
2023/06/26 08:46:10;;;;;;;7.63;5.30;;;28.10;99.90;;;28.21;55.92;100970.13;4917023;28;20064;-75
2023/06/26 08:48:37;;;;;;;7.03;4.80;;;28.20;99.90;;;28.06;55.97;100960.25;4912435;29;20040;-75
2023/06/26 08:51:11;;;;;;;6.10;5.03;;;28.60;99.90;;;28.78;55.43;100966.06;4909294;29;20489;-75
2023/06/26 08:53:58;;;;;;;13.20;5.25;;;28.80;99.90;;;28.61;54.36;100959.97;4908056;28;20503;-77
2023/06/26 08:56:29;;;;;;;11.77;5.10;;;29.10;99.90;;;28.99;54.06;100959.09;4910801;28;20032;-76
2023/06/26 08:58:55;;;;;;;10.27;4.72;;;29.40;99.90;;;29.21;53.84;100957.31;4910783;28;20044;-76
2023/06/26 09:01:23;;;;;;;12.20;4.93;;;29.60;99.90;;;29.42;52.34;100962.81;4912566;29;20040;-74
2023/06/26 09:03:52;;;;;;;87.00;10.38;;;29.70;99.90;;;29.15;52.72;100956.19;4929330;28;20035;-75
2023/06/26 09:06:18;;;;;;;9.15;4.80;;;29.60;99.90;;;29.32;52.38;100948.69;4900261;29;20052;-75
2023/06/26 09:08:45;;;;;;;20.60;6.10;;;29.60;99.90;;;29.40;53.38;100951.31;4905268;28;20122;-75
2023/06/26 09:11:17;;;;;;;32.85;6.28;;;29.80;99.90;;;29.65;52.23;100950.97;4911879;28;20043;-75
2023/06/26 09:13:47;;;;;;;20.90;5.05;;;30.10;98.30;;;30.16;50.29;100948.19;4914539;28;20087;-74
2023/06/26 09:16:20;;;;;;;11.13;4.72;;;30.50;97.70;;;30.51;48.27;100955.59;4891211;29;20043;-76
2023/06/26 09:18:46;;;;;;;10.77;4.95;;;30.80;96.20;;;30.66;47.81;100956.34;4906983;28;20123;-76
2023/06/26 09:21:14;;;;;;;7.15;4.85;;;31.10;96.90;;;30.96;47.46;100957.00;4915238;28;20102;-75
2023/06/26 09:23:41;;;;;;;5.82;4.40;;;31.10;95.50;;;30.42;47.46;100950.31;4912431;28;20556;-75
2023/06/26 09:26:07;;;;;;;7.40;4.25;;;31.00;96.30;;;30.61;47.99;100950.69;4928384;28;20033;-75
2023/06/26 09:28:35;;;;;;;12.90;4.63;;;31.10;96.40;;;30.84;47.44;100951.25;4932590;28;20038;-75
2023/06/26 09:31:06;;;;;;;5.25;4.47;;;31.10;95.50;;;30.69;47.93;100952.38;4935918;28;20068;-75
2023/06/26 09:33:38;;;;;;;7.97;3.97;;;31.30;95.70;;;30.93;47.54;100938.38;4921958;28;20064;-75
2023/06/26 09:36:21;;;;;;;6.35;5.10;;;31.40;96.70;;;31.33;47.80;100951.31;4920607;28;20035;-75
2023/06/26 09:38:53;;;;;;;10.15;4.20;;;31.60;96.10;;;31.45;46.90;100960.63;4908135;28;20110;-75
2023/06/26 09:41:20;;;;;;;25.40;5.13;;;31.90;95.00;;;31.70;46.27;100960.88;4918110;28;20067;-76
2023/06/26 09:43:51;;;;;;;9.63;4.50;;;32.00;95.50;;;31.50;46.13;100949.13;4907610;28;20111;-76
2023/06/26 09:46:24;;;;;;;9.38;4.88;;;31.90;95.20;;;31.18;47.51;100935.97;4906648;29;20032;-77
2023/06/26 09:49:07;;;;;;;8.30;4.57;;;31.30;95.80;;;30.43;49.68;100926.69;4923774;28;20044;-75
2023/06/26 09:51:41;;;;;;;6.15;4.40;;;31.40;95.80;;;31.11;47.56;100926.94;4930263;28;20582;-76
2023/06/26 09:54:09;;;;;;;9.40;4.72;;;31.60;97.30;;;31.58;48.51;100932.59;4916909;28;20095;-75
2023/06/26 09:56:39;;;;;;;8.07;4.63;;;31.90;95.90;;;31.76;47.13;100926.56;4917692;28;21074;-76
2023/06/26 09:59:06;;;;;;;9.55;4.40;;;32.10;95.50;;;32.01;45.65;100930.41;4915131;29;20139;-76
2023/06/26 10:01:34;;;;;;;11.95;4.00;;;32.30;94.30;;;31.92;46.40;100917.16;4917648;28;20120;-75
2023/06/26 10:04:04;;;;;;;7.30;4.28;;;32.30;94.00;;;31.85;45.27;100909.81;4923090;28;20036;-74
2023/06/26 10:06:36;;;;;;;12.63;4.68;;;32.30;93.50;;;31.80;45.17;100903.34;4908819;29;20151;-76
2023/06/26 10:09:06;;;;;;;8.40;4.63;;;32.10;93.90;;;31.39;46.33;100896.94;4919429;28;20134;-74
2023/06/26 10:11:46;;;;;;;11.50;4.72;;;32.20;94.30;;;31.78;45.33;100911.69;4917531;29;20063;-76
2023/06/26 10:14:16;;;;;;;5.93;4.70;;;32.30;94.50;;;32.15;45.84;100909.47;4917252;29;20176;-75
2023/06/26 10:16:48;;;;;;;6.07;4.03;;;32.60;93.60;;;32.46;44.25;100910.69;4929683;28;20094;-75